sensor_id;sensor_type;location;lat;lon;timestamp;pressure;altitude;pressure_sealevel;temperature;humidity
11985;BME280;6052;53.246;10.368;2023-11-19T00:02:26;100450.09;;;6.42;100.00
11985;BME280;6052;53.246;10.368;2023-11-19T00:04:56;100434.72;;;6.44;100.00
11985;BME280;6052;53.246;10.368;2023-11-19T00:07:26;100447.91;;;6.33;100.00
11985;BME280;6052;53.246;10.368;2023-11-19T00:10:01;100426.56;;;6.39;100.00
11985;BME280;6052;53.246;10.368;2023-11-19T00:12:37;100418.09;;;6.42;100.00
11985;BME280;6052;53.246;10.368;2023-11-19T00:15:10;100410.97;;;6.36;100.00
11985;BME280;6052;53.246;10.368;2023-11-19T00:17:41;100419.72;;;6.43;100.00
11985;BME280;6052;53.246;10.368;2023-11-19T00:20:12;100403.09;;;6.48;100.00
11985;BME280;6052;53.246;10.368;2023-11-19T00:22:43;100399.03;;;6.45;100.00
11985;BME280;6052;53.246;10.368;2023-11-19T00:25:16;100383.06;;;6.39;100.00
11985;BME280;6052;53.246;10.368;2023-11-19T00:27:46;100370.34;;;6.41;100.00
11985;BME280;6052;53.246;10.368;2023-11-19T00:30:20;100374.69;;;6.35;100.00
11985;BME280;6052;53.246;10.368;2023-11-19T00:32:49;100372.34;;;6.45;100.00
11985;BME280;6052;53.246;10.368;2023-11-19T00:35:19;100366.19;;;6.45;100.00
11985;BME280;6052;53.246;10.368;2023-11-19T00:37:49;100358.66;;;6.42;100.00
11985;BME280;6052;53.246;10.368;2023-11-19T00:40:21;100335.09;;;6.39;100.00
11985;BME280;6052;53.246;10.368;2023-11-19T00:42:50;100329.94;;;6.44;100.00
11985;BME280;6052;53.246;10.368;2023-11-19T00:45:22;100324.91;;;6.54;100.00
11985;BME280;6052;53.246;10.368;2023-11-19T00:47:52;100328.25;;;6.49;100.00
11985;BME280;6052;53.246;10.368;2023-11-19T00:50:22;100320.47;;;6.48;100.00
11985;BME280;6052;53.246;10.368;2023-11-19T00:52:52;100319.25;;;6.44;100.00
11985;BME280;6052;53.246;10.368;2023-11-19T00:55:21;100310.22;;;6.45;100.00
11985;BME280;6052;53.246;10.368;2023-11-19T00:57:51;100308.75;;;6.49;100.00
11985;BME280;6052;53.246;10.368;2023-11-19T01:00:23;100299.44;;;6.58;100.00
11985;BME280;6052;53.246;10.368;2023-11-19T01:02:54;100297.81;;;6.57;100.00
11985;BME280;6052;53.246;10.368;2023-11-19T01:05:24;100296.78;;;6.58;100.00
11985;BME280;6052;53.246;10.368;2023-11-19T01:07:55;100294.31;;;6.56;100.00
11985;BME280;6052;53.246;10.368;2023-11-19T01:10:25;100291.66;;;6.56;100.00
11985;BME280;6052;53.246;10.368;2023-11-19T01:12:55;100275.44;;;6.58;100.00
11985;BME280;6052;53.246;10.368;2023-11-19T01:15:28;100255.75;;;6.59;100.00
11985;BME280;6052;53.246;10.368;2023-11-19T01:17:57;100263.59;;;6.54;100.00
11985;BME280;6052;53.246;10.368;2023-11-19T01:20:27;100254.41;;;6.68;100.00
11985;BME280;6052;53.246;10.368;2023-11-19T01:22:56;100251.81;;;6.61;100.00
11985;BME280;6052;53.246;10.368;2023-11-19T01:25:26;100246.69;;;6.60;100.00
11985;BME280;6052;53.246;10.368;2023-11-19T01:27:56;100238.69;;;6.60;100.00
11985;BME280;6052;53.246;10.368;2023-11-19T01:30:28;100229.44;;;6.62;100.00
11985;BME280;6052;53.246;10.368;2023-11-19T01:32:58;100228.31;;;6.70;100.00
11985;BME280;6052;53.246;10.368;2023-11-19T01:35:28;100218.56;;;6.64;100.00
11985;BME280;6052;53.246;10.368;2023-11-19T01:37:57;100217.88;;;6.68;100.00
11985;BME280;6052;53.246;10.368;2023-11-19T01:40:27;100215.06;;;6.63;100.00
11985;BME280;6052;53.246;10.368;2023-11-19T01:42:57;100203.00;;;6.61;100.00
11985;BME280;6052;53.246;10.368;2023-11-19T01:45:30;100187.97;;;6.66;100.00
11985;BME280;6052;53.246;10.368;2023-11-19T01:48:02;100193.38;;;6.60;100.00
11985;BME280;6052;53.246;10.368;2023-11-19T01:50:33;100170.78;;;6.62;100.00
11985;BME280;6052;53.246;10.368;2023-11-19T01:53:02;100186.41;;;6.59;100.00
11985;BME280;6052;53.246;10.368;2023-11-19T01:55:32;100197.38;;;6.69;100.00
11985;BME280;6052;53.246;10.368;2023-11-19T01:58:02;100169.44;;;6.71;100.00
11985;BME280;6052;53.246;10.368;2023-11-19T02:00:34;100174.78;;;6.71;100.00
11985;BME280;6052;53.246;10.368;2023-11-19T02:03:06;100165.16;;;6.70;100.00
11985;BME280;6052;53.246;10.368;2023-11-19T02:05:37;100154.97;;;6.79;100.00
11985;BME280;6052;53.246;10.368;2023-11-19T02:08:08;100144.03;;;6.69;100.00
11985;BME280;6052;53.246;10.368;2023-11-19T02:10:40;100134.34;;;6.74;100.00
11985;BME280;6052;53.246;10.368;2023-11-19T02:13:10;100138.97;;;6.79;100.00
11985;BME280;6052;53.246;10.368;2023-11-19T02:15:43;100139.81;;;6.79;100.00
11985;BME280;6052;53.246;10.368;2023-11-19T02:18:17;100132.94;;;6.72;100.00
11985;BME280;6052;53.246;10.368;2023-11-19T02:20:48;100142.13;;;6.87;100.00
11985;BME280;6052;53.246;10.368;2023-11-19T02:23:20;100114.41;;;6.77;100.00
11985;BME280;6052;53.246;10.368;2023-11-19T02:26:02;100112.31;;;6.79;100.00
11985;BME280;6052;53.246;10.368;2023-11-19T02:28:35;100112.31;;;6.79;100.00
11985;BME280;6052;53.246;10.368;2023-11-19T02:31:05;100103.19;;;6.86;100.00
11985;BME280;6052;53.246;10.368;2023-11-19T02:33:36;100102.00;;;6.82;100.00
11985;BME280;6052;53.246;10.368;2023-11-19T02:36:08;100091.84;;;6.91;100.00
11985;BME280;6052;53.246;10.368;2023-11-19T02:38:38;100093.25;;;6.93;100.00
11985;BME280;6052;53.246;10.368;2023-11-19T02:41:08;100087.53;;;6.90;100.00
11985;BME280;6052;53.246;10.368;2023-11-19T02:43:41;100083.09;;;6.84;100.00
11985;BME280;6052;53.246;10.368;2023-11-19T02:46:10;100063.38;;;6.85;100.00
11985;BME280;6052;53.246;10.368;2023-11-19T02:48:42;100064.44;;;6.84;100.00
11985;BME280;6052;53.246;10.368;2023-11-19T02:51:12;100044.16;;;6.83;100.00
11985;BME280;6052;53.246;10.368;2023-11-19T02:53:42;100021.53;;;6.85;100.00
11985;BME280;6052;53.246;10.368;2023-11-19T02:56:15;100014.84;;;6.94;100.00
11985;BME280;6052;53.246;10.368;2023-11-19T02:58:54;100020.50;;;6.98;100.00
11985;BME280;6052;53.246;10.368;2023-11-19T03:01:24;100017.38;;;6.89;100.00
11985;BME280;6052;53.246;10.368;2023-11-19T03:03:58;100010.19;;;7.01;100.00
11985;BME280;6052;53.246;10.368;2023-11-19T03:06:30;100004.75;;;7.08;100.00
11985;BME280;6052;53.246;10.368;2023-11-19T03:08:59;99991.28;;;7.03;100.00
11985;BME280;6052;53.246;10.368;2023-11-19T03:11:37;99999.06;;;7.04;100.00
11985;BME280;6052;53.246;10.368;2023-11-19T03:14:09;99989.34;;;7.10;100.00
11985;BME280;6052;53.246;10.368;2023-11-19T03:16:38;99988.72;;;6.96;100.00
11985;BME280;6052;53.246;10.368;2023-11-19T03:19:08;99982.22;;;7.04;100.00
11985;BME280;6052;53.246;10.368;2023-11-19T03:21:50;99968.00;;;7.10;100.00
11985;BME280;6052;53.246;10.368;2023-11-19T03:24:20;99968.78;;;7.10;100.00
11985;BME280;6052;53.246;10.368;2023-11-19T03:26:51;99961.59;;;7.11;100.00
11985;BME280;6052;53.246;10.368;2023-11-19T03:29:23;99961.94;;;7.14;100.00
11985;BME280;6052;53.246;10.368;2023-11-19T03:31:53;99955.09;;;7.18;100.00
11985;BME280;6052;53.246;10.368;2023-11-19T03:34:22;99954.06;;;7.19;100.00
11985;BME280;6052;53.246;10.368;2023-11-19T03:36:52;99957.78;;;7.18;100.00
11985;BME280;6052;53.246;10.368;2023-11-19T03:39:22;99947.22;;;7.23;100.00
11985;BME280;6052;53.246;10.368;2023-11-19T03:41:53;99948.81;;;7.24;100.00
11985;BME280;6052;53.246;10.368;2023-11-19T03:44:26;99940.69;;;7.31;100.00
11985;BME280;6052;53.246;10.368;2023-11-19T03:46:56;99932.09;;;7.29;100.00
11985;BME280;6052;53.246;10.368;2023-11-19T03:49:25;99931.84;;;7.42;100.00
11985;BME280;6052;53.246;10.368;2023-11-19T03:51:55;99925.47;;;7.31;100.00
11985;BME280;6052;53.246;10.368;2023-11-19T03:54:25;99921.53;;;7.34;100.00
11985;BME280;6052;53.246;10.368;2023-11-19T03:56:54;99925.13;;;7.39;100.00
11985;BME280;6052;53.246;10.368;2023-11-19T03:59:26;99927.78;;;7.39;100.00
11985;BME280;6052;53.246;10.368;2023-11-19T04:01:56;99913.28;;;7.47;100.00
11985;BME280;6052;53.246;10.368;2023-11-19T04:04:27;99923.13;;;7.46;100.00
11985;BME280;6052;53.246;10.368;2023-11-19T04:06:57;99922.66;;;7.49;100.00
11985;BME280;6052;53.246;10.368;2023-11-19T04:09:27;99927.22;;;7.49;100.00
11985;BME280;6052;53.246;10.368;2023-11-19T04:11:57;99914.28;;;7.57;100.00
11985;BME280;6052;53.246;10.368;2023-11-19T04:14:29;99922.53;;;7.56;100.00
11985;BME280;6052;53.246;10.368;2023-11-19T04:16:59;99920.06;;;7.66;100.00
11985;BME280;6052;53.246;10.368;2023-11-19T04:19:29;99905.78;;;7.60;100.00
11985;BME280;6052;53.246;10.368;2023-11-19T04:21:59;99917.84;;;7.63;100.00
11985;BME280;6052;53.246;10.368;2023-11-19T04:24:29;99902.84;;;7.73;100.00
11985;BME280;6052;53.246;10.368;2023-11-19T04:26:58;99894.13;;;7.78;100.00
11985;BME280;6052;53.246;10.368;2023-11-19T04:29:31;99884.50;;;7.77;100.00
11985;BME280;6052;53.246;10.368;2023-11-19T04:32:01;99884.13;;;7.85;100.00
11985;BME280;6052;53.246;10.368;2023-11-19T04:34:32;99872.84;;;7.83;100.00
11985;BME280;6052;53.246;10.368;2023-11-19T04:37:02;99876.06;;;7.96;100.00
11985;BME280;6052;53.246;10.368;2023-11-19T04:39:35;99867.81;;;7.98;100.00
11985;BME280;6052;53.246;10.368;2023-11-19T04:42:05;99867.81;;;7.98;100.00
11985;BME280;6052;53.246;10.368;2023-11-19T04:44:38;99867.72;;;8.09;100.00
11985;BME280;6052;53.246;10.368;2023-11-19T04:47:08;99865.84;;;8.21;100.00
11985;BME280;6052;53.246;10.368;2023-11-19T04:49:40;99870.94;;;8.23;100.00
11985;BME280;6052;53.246;10.368;2023-11-19T04:52:09;99868.34;;;8.28;100.00
11985;BME280;6052;53.246;10.368;2023-11-19T04:54:43;99869.88;;;8.24;100.00
11985;BME280;6052;53.246;10.368;2023-11-19T04:57:12;99869.00;;;8.35;100.00
11985;BME280;6052;53.246;10.368;2023-11-19T04:59:45;99868.19;;;8.34;100.00
11985;BME280;6052;53.246;10.368;2023-11-19T05:02:14;99874.41;;;8.40;100.00
11985;BME280;6052;53.246;10.368;2023-11-19T05:04:44;99860.56;;;8.43;100.00
11985;BME280;6052;53.246;10.368;2023-11-19T05:07:16;99853.03;;;8.40;100.00
11985;BME280;6052;53.246;10.368;2023-11-19T05:09:45;99860.00;;;8.41;100.00
11985;BME280;6052;53.246;10.368;2023-11-19T05:12:15;99857.00;;;8.54;100.00
11985;BME280;6052;53.246;10.368;2023-11-19T05:14:47;99854.09;;;8.55;100.00
11985;BME280;6052;53.246;10.368;2023-11-19T05:17:17;99848.22;;;8.58;100.00
11985;BME280;6052;53.246;10.368;2023-11-19T05:19:47;99848.75;;;8.55;100.00
11985;BME280;6052;53.246;10.368;2023-11-19T05:22:17;99847.66;;;8.73;100.00
11985;BME280;6052;53.246;10.368;2023-11-19T05:24:47;99847.81;;;8.83;100.00
11985;BME280;6052;53.246;10.368;2023-11-19T05:27:17;99849.59;;;8.77;100.00
11985;BME280;6052;53.246;10.368;2023-11-19T05:29:49;99840.47;;;8.73;100.00
11985;BME280;6052;53.246;10.368;2023-11-19T05:32:19;99838.78;;;8.89;100.00
11985;BME280;6052;53.246;10.368;2023-11-19T05:34:48;99847.81;;;8.83;100.00
11985;BME280;6052;53.246;10.368;2023-11-19T05:37:18;99839.28;;;8.86;100.00
11985;BME280;6052;53.246;10.368;2023-11-19T05:39:48;99843.06;;;8.90;100.00
11985;BME280;6052;53.246;10.368;2023-11-19T05:42:17;99835.53;;;9.03;100.00
11985;BME280;6052;53.246;10.368;2023-11-19T05:44:49;99841.34;;;9.00;100.00
11985;BME280;6052;53.246;10.368;2023-11-19T05:47:19;99835.34;;;9.10;100.00
11985;BME280;6052;53.246;10.368;2023-11-19T05:49:49;99840.34;;;9.06;100.00
11985;BME280;6052;53.246;10.368;2023-11-19T05:52:18;99830.03;;;8.93;100.00
11985;BME280;6052;53.246;10.368;2023-11-19T05:54:48;99815.91;;;8.98;100.00
11985;BME280;6052;53.246;10.368;2023-11-19T05:57:19;99823.31;;;9.12;100.00
11985;BME280;6052;53.246;10.368;2023-11-19T05:59:54;99814.59;;;9.00;100.00
11985;BME280;6052;53.246;10.368;2023-11-19T06:02:25;99820.38;;;9.14;100.00
11985;BME280;6052;53.246;10.368;2023-11-19T06:04:56;99812.81;;;9.27;100.00
11985;BME280;6052;53.246;10.368;2023-11-19T06:07:25;99819.59;;;9.35;100.00
11985;BME280;6052;53.246;10.368;2023-11-19T06:09:55;99825.38;;;9.27;100.00
11985;BME280;6052;53.246;10.368;2023-11-19T06:12:25;99821.88;;;9.26;100.00
11985;BME280;6052;53.246;10.368;2023-11-19T06:14:57;99826.59;;;9.41;100.00
11985;BME280;6052;53.246;10.368;2023-11-19T06:17:26;99823.19;;;9.24;100.00
11985;BME280;6052;53.246;10.368;2023-11-19T06:19:56;99828.16;;;9.37;100.00
11985;BME280;6052;53.246;10.368;2023-11-19T06:22:26;99825.25;;;9.38;100.00
11985;BME280;6052;53.246;10.368;2023-11-19T06:24:56;99828.28;;;9.47;100.00
11985;BME280;6052;53.246;10.368;2023-11-19T06:27:26;99826.09;;;9.44;100.00
11985;BME280;6052;53.246;10.368;2023-11-19T06:29:59;99823.56;;;9.54;100.00
11985;BME280;6052;53.246;10.368;2023-11-19T06:32:29;99814.09;;;9.46;100.00
11985;BME280;6052;53.246;10.368;2023-11-19T06:34:59;99822.25;;;9.56;100.00
11985;BME280;6052;53.246;10.368;2023-11-19T06:37:31;99815.50;;;9.80;100.00
11985;BME280;6052;53.246;10.368;2023-11-19T06:40:00;99813.59;;;9.76;100.00
11985;BME280;6052;53.246;10.368;2023-11-19T06:42:32;99809.16;;;9.60;100.00
11985;BME280;6052;53.246;10.368;2023-11-19T06:45:04;99802.75;;;9.92;100.00
11985;BME280;6052;53.246;10.368;2023-11-19T06:47:34;99810.34;;;10.00;100.00
11985;BME280;6052;53.246;10.368;2023-11-19T06:50:05;99825.69;;;10.05;100.00
11985;BME280;6052;53.246;10.368;2023-11-19T06:52:36;99829.97;;;10.06;100.00
11985;BME280;6052;53.246;10.368;2023-11-19T06:55:07;99829.41;;;10.30;100.00
11985;BME280;6052;53.246;10.368;2023-11-19T06:57:37;99840.38;;;10.29;100.00
11985;BME280;6052;53.246;10.368;2023-11-19T07:00:11;99839.69;;;10.43;100.00
11985;BME280;6052;53.246;10.368;2023-11-19T07:02:41;99836.03;;;10.54;100.00
11985;BME280;6052;53.246;10.368;2023-11-19T07:05:11;99838.34;;;10.46;100.00
11985;BME280;6052;53.246;10.368;2023-11-19T07:07:41;99834.34;;;10.48;100.00
11985;BME280;6052;53.246;10.368;2023-11-19T07:10:12;99835.25;;;10.59;100.00
11985;BME280;6052;53.246;10.368;2023-11-19T07:12:42;99838.56;;;10.71;100.00
11985;BME280;6052;53.246;10.368;2023-11-19T07:15:14;99833.47;;;10.74;100.00
11985;BME280;6052;53.246;10.368;2023-11-19T07:17:44;99840.69;;;10.69;100.00
11985;BME280;6052;53.246;10.368;2023-11-19T07:20:28;99835.94;;;10.81;100.00
11985;BME280;6052;53.246;10.368;2023-11-19T07:22:59;99842.94;;;10.87;100.00
11985;BME280;6052;53.246;10.368;2023-11-19T07:25:29;99835.94;;;10.81;100.00
11985;BME280;6052;53.246;10.368;2023-11-19T07:27:59;99841.28;;;10.76;100.00
11985;BME280;6052;53.246;10.368;2023-11-19T07:30:34;99832.25;;;10.97;100.00
11985;BME280;6052;53.246;10.368;2023-11-19T07:33:03;99841.63;;;10.89;100.00
11985;BME280;6052;53.246;10.368;2023-11-19T07:35:33;99841.41;;;10.96;100.00
11985;BME280;6052;53.246;10.368;2023-11-19T07:38:03;99835.22;;;11.00;100.00
11985;BME280;6052;53.246;10.368;2023-11-19T07:40:32;99836.81;;;10.96;100.00
11985;BME280;6052;53.246;10.368;2023-11-19T07:43:02;99837.44;;;11.08;100.00
11985;BME280;6052;53.246;10.368;2023-11-19T07:45:36;99838.81;;;11.16;100.00
11985;BME280;6052;53.246;10.368;2023-11-19T07:48:06;99838.81;;;11.16;100.00
11985;BME280;6052;53.246;10.368;2023-11-19T07:50:35;99843.63;;;11.14;100.00
11985;BME280;6052;53.246;10.368;2023-11-19T07:53:05;99829.41;;;11.18;100.00
11985;BME280;6052;53.246;10.368;2023-11-19T07:55:35;99850.09;;;11.18;100.00
11985;BME280;6052;53.246;10.368;2023-11-19T07:58:08;99856.84;;;11.25;100.00
11985;BME280;6052;53.246;10.368;2023-11-19T08:00:40;99854.97;;;11.26;100.00
11985;BME280;6052;53.246;10.368;2023-11-19T08:03:10;99854.97;;;11.26;100.00
11985;BME280;6052;53.246;10.368;2023-11-19T08:05:40;99856.31;;;11.28;100.00
11985;BME280;6052;53.246;10.368;2023-11-19T08:08:10;99847.47;;;11.33;100.00
11985;BME280;6052;53.246;10.368;2023-11-19T08:10:40;99864.16;;;11.35;100.00
11985;BME280;6052;53.246;10.368;2023-11-19T08:13:10;99854.44;;;11.34;100.00
11985;BME280;6052;53.246;10.368;2023-11-19T08:15:42;99856.91;;;11.40;100.00
11985;BME280;6052;53.246;10.368;2023-11-19T08:18:13;99851.84;;;11.44;100.00
11985;BME280;6052;53.246;10.368;2023-11-19T08:20:42;99864.22;;;11.50;100.00
11985;BME280;6052;53.246;10.368;2023-11-19T08:23:14;99864.75;;;11.52;100.00
11985;BME280;6052;53.246;10.368;2023-11-19T08:25:45;99868.00;;;11.59;100.00
11985;BME280;6052;53.246;10.368;2023-11-19T08:28:14;99874.16;;;11.54;100.00
11985;BME280;6052;53.246;10.368;2023-11-19T08:30:46;99874.97;;;11.55;100.00
11985;BME280;6052;53.246;10.368;2023-11-19T08:33:16;99872.34;;;11.60;100.00
11985;BME280;6052;53.246;10.368;2023-11-19T08:35:49;99872.88;;;11.62;100.00
11985;BME280;6052;53.246;10.368;2023-11-19T08:38:18;99882.03;;;11.66;100.00
11985;BME280;6052;53.246;10.368;2023-11-19T08:40:51;99886.88;;;11.64;100.00
11985;BME280;6052;53.246;10.368;2023-11-19T08:43:26;99874.78;;;11.66;100.00
11985;BME280;6052;53.246;10.368;2023-11-19T08:46:01;99872.88;;;11.62;100.00
11985;BME280;6052;53.246;10.368;2023-11-19T08:48:30;99880.97;;;11.67;100.00
11985;BME280;6052;53.246;10.368;2023-11-19T08:51:00;99876.69;;;11.71;100.00
11985;BME280;6052;53.246;10.368;2023-11-19T08:53:31;99882.03;;;11.66;100.00
11985;BME280;6052;53.246;10.368;2023-11-19T08:56:01;99878.53;;;11.70;100.00
11985;BME280;6052;53.246;10.368;2023-11-19T08:58:30;99890.38;;;11.69;100.00
11985;BME280;6052;53.246;10.368;2023-11-19T09:01:03;99887.16;;;11.72;100.00
11985;BME280;6052;53.246;10.368;2023-11-19T09:03:33;99890.38;;;11.69;100.00
11985;BME280;6052;53.246;10.368;2023-11-19T09:06:04;99885.84;;;11.75;100.00
11985;BME280;6052;53.246;10.368;2023-11-19T09:08:33;99890.38;;;11.74;100.00
11985;BME280;6052;53.246;10.368;2023-11-19T09:11:06;99893.63;;;11.71;100.00
11985;BME280;6052;53.246;10.368;2023-11-19T09:13:37;99896.31;;;11.71;100.00
11985;BME280;6052;53.246;10.368;2023-11-19T09:16:11;99890.13;;;11.76;100.00
11985;BME280;6052;53.246;10.368;2023-11-19T09:18:42;99891.47;;;11.73;100.00
11985;BME280;6052;53.246;10.368;2023-11-19T09:21:12;99903.03;;;11.74;100.00
11985;BME280;6052;53.246;10.368;2023-11-19T09:23:41;99897.38;;;11.75;100.00
11985;BME280;6052;53.246;10.368;2023-11-19T09:26:11;99902.78;;;11.80;100.00
11985;BME280;6052;53.246;10.368;2023-11-19T09:28:41;99904.66;;;11.75;100.00
11985;BME280;6052;53.246;10.368;2023-11-19T09:31:17;99904.09;;;11.78;100.00
11985;BME280;6052;53.246;10.368;2023-11-19T09:33:47;99900.38;;;11.84;100.00
11985;BME280;6052;53.246;10.368;2023-11-19T09:36:16;99905.75;;;11.84;100.00
11985;BME280;6052;53.246;10.368;2023-11-19T09:38:46;99898.47;;;11.84;100.00
11985;BME280;6052;53.246;10.368;2023-11-19T09:41:16;99904.69;;;11.85;100.00
11985;BME280;6052;53.246;10.368;2023-11-19T09:43:46;99899.06;;;11.86;100.00
11985;BME280;6052;53.246;10.368;2023-11-19T09:46:19;99901.75;;;11.86;100.00
11985;BME280;6052;53.246;10.368;2023-11-19T09:48:52;99904.97;;;11.88;100.00
11985;BME280;6052;53.246;10.368;2023-11-19T09:51:23;99911.41;;;11.87;100.00
11985;BME280;6052;53.246;10.368;2023-11-19T09:53:53;99905.53;;;11.90;100.00
11985;BME280;6052;53.246;10.368;2023-11-19T09:56:23;99903.88;;;11.94;100.00
11985;BME280;6052;53.246;10.368;2023-11-19T09:58:53;99914.94;;;11.93;100.00
11985;BME280;6052;53.246;10.368;2023-11-19T10:01:25;99909.81;;;11.91;100.00
11985;BME280;6052;53.246;10.368;2023-11-19T10:03:55;99912.50;;;11.91;100.00
11985;BME280;6052;53.246;10.368;2023-11-19T10:06:25;99907.94;;;11.97;100.00
11985;BME280;6052;53.246;10.368;2023-11-19T10:08:56;99926.22;;;11.95;100.00
11985;BME280;6052;53.246;10.368;2023-11-19T10:11:26;99904.44;;;11.96;100.00
11985;BME280;6052;53.246;10.368;2023-11-19T10:13:56;99905.53;;;12.00;100.00
11985;BME280;6052;53.246;10.368;2023-11-19T10:16:30;99904.72;;;12.00;100.00
11985;BME280;6052;53.246;10.368;2023-11-19T10:19:01;99904.72;;;12.05;100.00
11985;BME280;6052;53.246;10.368;2023-11-19T10:21:32;99904.75;;;12.15;100.00
11985;BME280;6052;53.246;10.368;2023-11-19T10:24:02;99905.28;;;12.12;100.00
11985;BME280;6052;53.246;10.368;2023-11-19T10:26:36;99906.09;;;12.12;100.00
11985;BME280;6052;53.246;10.368;2023-11-19T10:29:06;99905.28;;;12.17;100.00
11985;BME280;6052;53.246;10.368;2023-11-19T10:31:38;99916.03;;;12.12;100.00
11985;BME280;6052;53.246;10.368;2023-11-19T10:34:24;99912.00;;;12.09;100.00
11985;BME280;6052;53.246;10.368;2023-11-19T10:36:54;99909.03;;;12.11;100.00
11985;BME280;6052;53.246;10.368;2023-11-19T10:39:50;99908.53;;;12.14;100.00
11985;BME280;6052;53.246;10.368;2023-11-19T10:42:21;99915.25;;;12.11;100.00
11985;BME280;6052;53.246;10.368;2023-11-19T10:44:51;99917.38;;;12.09;100.00
11985;BME280;6052;53.246;10.368;2023-11-19T10:47:23;99911.22;;;12.14;100.00
11985;BME280;6052;53.246;10.368;2023-11-19T10:49:56;99904.22;;;12.13;100.00
11985;BME280;6052;53.246;10.368;2023-11-19T10:52:27;99911.22;;;12.14;100.00
11985;BME280;6052;53.246;10.368;2023-11-19T10:55:00;99913.09;;;12.13;100.00
11985;BME280;6052;53.246;10.368;2023-11-19T10:57:32;99911.47;;;12.07;100.00
11985;BME280;6052;53.246;10.368;2023-11-19T11:00:07;99918.22;;;12.20;100.00
11985;BME280;6052;53.246;10.368;2023-11-19T11:02:45;99911.75;;;12.16;100.00
11985;BME280;6052;53.246;10.368;2023-11-19T11:05:21;99910.94;;;12.05;100.00
11985;BME280;6052;53.246;10.368;2023-11-19T11:07:55;99910.94;;;12.10;100.00
11985;BME280;6052;53.246;10.368;2023-11-19T11:10:26;99912.00;;;12.09;100.00
11985;BME280;6052;53.246;10.368;2023-11-19T11:12:58;99910.13;;;12.10;100.00
11985;BME280;6052;53.246;10.368;2023-11-19T11:15:29;99911.47;;;12.07;100.00
11985;BME280;6052;53.246;10.368;2023-11-19T11:18:02;99899.63;;;12.08;100.00
11985;BME280;6052;53.246;10.368;2023-11-19T11:20:33;99908.78;;;12.07;100.00
11985;BME280;6052;53.246;10.368;2023-11-19T11:23:25;99916.03;;;12.17;100.00
11985;BME280;6052;53.246;10.368;2023-11-19T11:26:09;99914.44;;;12.21;100.00
11985;BME280;6052;53.246;10.368;2023-11-19T11:28:48;99905.03;;;12.23;100.00
11985;BME280;6052;53.246;10.368;2023-11-19T11:31:31;99905.03;;;12.23;100.00
11985;BME280;6052;53.246;10.368;2023-11-19T11:34:27;99908.28;;;12.25;100.00
11985;BME280;6052;53.246;10.368;2023-11-19T11:37:09;99911.50;;;12.27;100.00
11985;BME280;6052;53.246;10.368;2023-11-19T11:39:40;99911.75;;;12.31;100.00
11985;BME280;6052;53.246;10.368;2023-11-19T11:42:32;99914.19;;;12.32;100.00
11985;BME280;6052;53.246;10.368;2023-11-19T11:45:03;99905.34;;;12.42;100.00
11985;BME280;6052;53.246;10.368;2023-11-19T11:50:50;99920.94;;;12.50;100.00
11985;BME280;6052;53.246;10.368;2023-11-19T11:53:21;99916.63;;;12.44;100.00
11985;BME280;6052;53.246;10.368;2023-11-19T11:55:56;99917.47;;;12.44;100.00
11985;BME280;6052;53.246;10.368;2023-11-19T11:58:32;99929.28;;;12.43;100.00
11985;BME280;6052;53.246;10.368;2023-11-19T12:01:05;99922.53;;;12.46;100.00
11985;BME280;6052;53.246;10.368;2023-11-19T12:03:35;99924.44;;;12.40;100.00
11985;BME280;6052;53.246;10.368;2023-11-19T12:06:10;99918.50;;;12.33;100.00
11985;BME280;6052;53.246;10.368;2023-11-19T12:08:41;99930.09;;;12.34;100.00
11985;BME280;6052;53.246;10.368;2023-11-19T12:11:13;99913.13;;;12.38;100.00
11985;BME280;6052;53.246;10.368;2023-11-19T12:13:47;99916.63;;;12.44;100.00
11985;BME280;6052;53.246;10.368;2023-11-19T12:16:22;99908.28;;;12.40;100.00
11985;BME280;6052;53.246;10.368;2023-11-19T12:18:54;99913.69;;;12.45;100.00
11985;BME280;6052;53.246;10.368;2023-11-19T12:21:31;99912.06;;;12.44;100.00
11985;BME280;6052;53.246;10.368;2023-11-19T12:24:06;99916.09;;;12.42;100.00
11985;BME280;6052;53.246;10.368;2023-11-19T12:26:40;99923.09;;;12.43;100.00
11985;BME280;6052;53.246;10.368;2023-11-19T12:29:09;99923.63;;;12.45;100.00
11985;BME280;6052;53.246;10.368;2023-11-19T12:31:44;99914.47;;;12.36;100.00
11985;BME280;6052;53.246;10.368;2023-11-19T12:34:13;99908.03;;;12.42;100.00
11985;BME280;6052;53.246;10.368;2023-11-19T12:36:46;99910.16;;;12.45;100.00
11985;BME280;6052;53.246;10.368;2023-11-19T12:39:18;99910.16;;;12.40;100.00
11985;BME280;6052;53.246;10.368;2023-11-19T12:41:52;99911.25;;;12.39;100.00
11985;BME280;6052;53.246;10.368;2023-11-19T12:44:22;99908.28;;;12.40;100.00
11985;BME280;6052;53.246;10.368;2023-11-19T12:47:03;99913.41;;;12.37;100.00
11985;BME280;6052;53.246;10.368;2023-11-19T12:49:34;99904.25;;;12.38;100.00
11985;BME280;6052;53.246;10.368;2023-11-19T12:52:14;99909.38;;;12.44;100.00
11985;BME280;6052;53.246;10.368;2023-11-19T12:54:44;99910.16;;;12.35;100.00
11985;BME280;6052;53.246;10.368;2023-11-19T12:57:15;99908.28;;;12.40;100.00
11985;BME280;6052;53.246;10.368;2023-11-19T12:59:54;99899.97;;;12.42;100.00
11985;BME280;6052;53.246;10.368;2023-11-19T13:02:45;99913.69;;;12.35;100.00
11985;BME280;6052;53.246;10.368;2023-11-19T13:05:31;99905.34;;;12.42;100.00
11985;BME280;6052;53.246;10.368;2023-11-19T13:08:06;99903.19;;;12.44;100.00
11985;BME280;6052;53.246;10.368;2023-11-19T13:10:50;99902.09;;;12.40;100.00
11985;BME280;6052;53.246;10.368;2023-11-19T13:13:20;99903.19;;;12.39;100.00
11985;BME280;6052;53.246;10.368;2023-11-19T13:15:50;99911.00;;;12.45;100.00
11985;BME280;6052;53.246;10.368;2023-11-19T13:18:20;99908.56;;;12.44;100.00
11985;BME280;6052;53.246;10.368;2023-11-19T13:20:49;99909.66;;;12.43;100.00